1NC4 weather

Bell Strip
Pollocksville, North Carolina, United States

Public forecast

Using degrees Fahrenheit for public forecast. Weather courtesy of forecast.io.

Closest aviation weather report (METAR) to Bell Strip

Closest report is Coastal Carolina Regional Airport, 11.5 nm (21.4 km) ENE. Retrieved 2020/07/04 13:54 UTC (14 minutes ago):

KEWN 041354Z 28005KT 10SM CLR 30/22 A2992 RMK AO2 SLP133 T03000217

Closest aviation forecast (TAF) to Bell Strip

Closest forecast is Coastal Carolina Regional Airport, 11.5 nm (21.4 km) ENE. Retrieved 2020/07/04 12:22 UTC (2 hours ago):

TAF KEWN 041120Z 0412/0512 28004KT P6SM FEW250 FM042000 VRB04KT P6SM VCTS SCT070CB FM050000 09003KT P6SM FEW060